Latest Weather Observations for Coolangatta

IDQ60901

Issued at 10:41 am EST Thursday 26 May 2016 (issued every 10 minutes, with the page automatically refreshed every 10 minutes)

About weather observations | Map of Brisbane area stations | Latest observations for Brisbane area | Other Formats
Station Details ID: 040717 Name: COOLANGATTA Lat: -28.17 Lon: 153.51 Height: 4.0 m
Data from the previous 72 hours. | See also: Recent months at Coolangatta
Date/Time
EST
Tmp

°C
App
Tmp
°C
Dew
Point
°C
Rel
Hum
%
Delta-T

°C
Wind Press
QNH
hPa
Press
MSL
hPa
Rain
since
9 am
mm
Dir
 
Spd
km/h
Gust
km/h
Spd
kts
Gust
kts
26/10:30am 22.6 16.3 11.0 48 6.4 N 35 43 19 23 1012.9 1012.9 0.0
26/10:00am 23.0 18.7 10.8 46 6.7 NNW 24 32 13 17 1013.5 1013.5 0.0
26/09:30am 21.6 17.3 9.2 45 6.6 NNW 22 28 12 15 1014.2 1014.2 0.0
26/09:00am 21.6 17.9 10.1 48 6.2 N 20 28 11 15 1014.5 1014.5 0.0
26/08:30am 20.0 16.6 9.0 49 5.8 NNW 17 28 9 15 1014.5 1014.5 0.0
26/08:00am 18.8 14.6 7.3 47 5.8 NNW 19 26 10 14 1014.3 1014.3 0.0
26/07:30am 17.7 14.4 8.0 53 4.9 NNW 15 22 8 12 1014.5 1014.5 0.0
26/07:00am 13.8 10.9 9.5 75 2.2 N 15 17 8 9 1014.4 1014.4 0.0
26/06:30am 12.5 11.6 7.8 73 2.3 NNW 2 7 1 4 1014.7 1014.7 0.0
26/06:00am 15.6 13.7 9.1 65 3.3 WNW 9 13 5 7 1014.6 1014.6 0.0
26/05:30am 16.9 13.1 9.8 63 3.7 NW 20 26 11 14 1014.3 1014.3 0.0
26/05:00am 17.0 13.4 10.6 66 3.4 NW 20 32 11 17 1013.9 1013.9 0.0
26/04:30am 15.8 14.2 10.1 69 3.0 NW 9 15 5 8 1014.2 1014.2 0.0
26/04:00am 16.4 14.1 10.5 68 3.1 WNW 13 19 7 10 1014.4 1014.4 0.0
26/03:30am 16.7 13.7 10.8 68 3.2 NW 17 22 9 12 1014.4 1014.4 0.0
26/03:00am 16.2 13.5 10.5 69 3.0 NW 15 20 8 11 1014.6 1014.6 0.0
26/02:30am 17.1 14.2 10.9 67 3.3 WNW 17 24 9 13 1015.0 1015.0 0.0
26/02:00am 16.9 14.0 11.0 68 3.2 NW 17 26 9 14 1015.1 1015.1 0.0
26/01:30am 16.5 13.9 10.8 69 3.0 WNW 15 20 8 11 1015.4 1015.4 0.0
26/01:00am 16.8 14.7 11.1 69 3.1 WNW 13 20 7 11 1015.6 1015.6 0.0
26/12:30am 17.3 14.8 11.1 67 3.3 WNW 15 20 8 11 1016.0 1016.0 0.0
26/12:00am 17.0 14.2 11.3 69 3.1 NW 17 22 9 12 1016.2 1016.2 0.0
 
Date/Time
EST
Tmp

°C
App
Tmp
°C
Dew
Point
°C
Rel
Hum
%
Delta-T

°C
Wind Press
QNH
hPa
Press
MSL
hPa
Rain
since
9 am
mm
Dir
 
Spd
km/h
Gust
km/h
Spd
kts
Gust
kts
25/11:30pm 16.1 13.9 10.8 71 2.8 WNW 13 20 7 11 1016.5 1016.5 0.0
25/11:27pm 15.8 13.7 11.2 74 2.5 WNW 13 20 7 11 1016.6 1016.6 0.0
25/11:00pm 10.7 8.8 9.1 90 0.8 WNW 9 13 5 7 1016.7 1016.7 0.0
25/10:30pm 11.2 9.8 9.6 90 0.8 WSW 7 9 4 5 1016.7 1016.7 0.0
25/10:00pm 11.2 9.4 9.5 89 0.9 WSW 9 9 5 5 1016.8 1016.8 0.0
25/09:30pm 11.6 10.9 10.0 90 0.8 WSW 4 7 2 4 1016.7 1016.7 0.0
25/09:00pm 10.9 9.9 8.7 86 1.1 WSW 4 7 2 4 1016.9 1016.9 0.0
25/08:30pm 12.2 11.0 9.6 84 1.3 WSW 6 7 3 4 1016.8 1016.8 0.0
25/08:00pm 12.6 11.5 10.1 85 1.3 WSW 6 7 3 4 1016.8 1016.8 0.0
25/07:30pm 13.5 12.1 9.7 78 1.9 WSW 7 9 4 5 1016.6 1016.6 0.0
25/07:13pm 13.4 12.6 9.6 78 1.9 SW 4 6 2 3 1016.4 1016.4 0.0
25/07:01pm 13.7 12.3 9.7 77 2.1 SW 7 11 4 6 1016.4 1016.4 0.0
25/07:00pm 13.9 12.6 9.9 77 2.1 SW 7 11 4 6 1016.4 1016.4 0.0
25/06:30pm 14.0 12.7 9.8 76 2.2 WSW 7 11 4 6 1016.3 1016.3 0.0
25/06:00pm 14.8 13.0 9.6 71 2.7 WSW 9 11 5 6 1016.0 1016.0 0.0
25/05:30pm 15.3 13.2 9.7 69 2.9 WSW 11 11 6 6 1015.9 1015.9 0.0
25/05:00pm 17.3 17.2 9.5 60 4.1 CALM 0 0 0 0 1015.7 1015.7 0.0
25/04:30pm 21.1 19.3 8.0 43 6.8 ENE 7 11 4 6 1015.5 1015.5 0.0
25/04:00pm 21.9 19.3 7.7 40 7.4 ENE 11 13 6 7 1015.5 1015.5 0.0
25/03:30pm 22.4 19.7 7.4 38 7.8 ENE 11 17 6 9 1015.7 1015.7 0.0
25/03:00pm 22.7 19.5 6.9 36 8.1 E 13 19 7 10 1015.5 1015.5 0.0
25/02:30pm 22.9 19.3 6.6 35 8.4 E 15 20 8 11 1015.5 1015.5 0.0
25/02:00pm 23.2 19.7 7.3 36 8.3 ESE 15 20 8 11 1015.6 1015.6 0.0
25/01:30pm 23.3 19.3 6.6 34 8.6 ESE 17 24 9 13 1015.8 1015.8 0.0
25/01:00pm 23.4 18.9 6.2 33 8.8 ESE 19 24 10 13 1016.0 1016.0 0.0
25/12:30pm 23.5 20.1 5.9 32 8.9 SE 13 20 7 11 1016.2 1016.2 0.0
25/12:00pm 23.2 19.6 2.7 26 9.8 SSE 11 17 6 9 1016.6 1016.6 0.0
25/11:30am 22.7 18.6 2.2 26 9.7 SSE 13 17 7 9 1016.8 1016.8 0.0
25/11:00am 22.2 17.6 1.3 25 9.6 SSE 15 20 8 11 1017.2 1017.2 0.0
25/10:30am 22.2 17.6 1.8 26 9.5 S 15 20 8 11 1017.5 1017.5 0.0
25/10:00am 21.4 16.9 0.0 24 9.5 SSW 13 17 7 9 1017.8 1017.8 0.0
25/09:30am 20.7 16.4 3.4 32 8.2 S 15 20 8 11 1017.8 1017.8 0.0
25/09:00am 19.1 17.8 9.9 55 4.9 S 7 9 4 5 1017.7 1017.7 0.0
25/08:30am 16.0 14.2 7.0 55 4.4 SSW 6 7 3 4 1017.8 1017.8 0.0
25/08:00am 12.3 10.8 6.8 69 2.6 WSW 4 7 2 4 1017.6 1017.6 0.0
25/07:30am 10.3 8.1 6.3 76 1.9 SSW 7 9 4 5 1017.3 1017.3 0.0
25/07:00am 9.1 7.4 5.8 80 1.5 SW 4 9 2 5 1017.2 1017.2 0.0
25/06:30am 8.0 5.3 5.5 84 1.1 SW 9 11 5 6 1016.7 1016.7 0.0
25/06:00am 8.2 4.7 5.3 82 1.3 SW 13 15 7 8 1016.7 1016.7 0.0
25/05:30am 8.2 5.6 6.3 88 0.9 SSW 9 11 5 6 1016.4 1016.4 0.0
25/05:00am 8.5 4.2 6.8 89 0.8 WSW 19 20 10 11 1016.2 1016.2 0.0
25/04:30am 8.2 4.9 6.5 89 0.8 WSW 13 15 7 8 1016.0 1016.0 0.0
25/04:00am 7.9 5.6 7.3 96 0.3 SW 9 11 5 6 1015.8 1015.8 0.0
25/03:30am 8.3 6.5 7.9 97 0.2 WSW 7 11 4 6 1015.6 1015.6 0.0
25/03:00am 8.0 6.3 7.6 97 0.2 SW 6 9 3 5 1015.8 1015.8 0.0
25/02:49am 8.3 6.5 7.9 97 0.2 SW 7 9 4 5 1015.8 1015.8 0.0
25/02:30am 7.4 5.9 6.7 95 0.3 S 4 7 2 4 1015.7 1015.7 0.0
25/02:22am 7.8 6.7 7.1 95 0.3 SSW 2 7 1 4 1015.8 1015.8 0.0
25/02:00am 8.6 7.0 7.8 95 0.4 SSW 6 7 3 4 1015.8 1015.8 0.0
25/01:30am 8.8 7.2 7.9 94 0.4 SW 6 7 3 4 1015.8 1015.8 0.0
25/01:00am 8.5 6.7 7.3 92 0.6 SW 6 7 3 4 1016.2 1016.2 0.0
25/12:30am 11.1 11.1 9.9 92 0.6 CALM 0 6 0 3 1016.6 1016.6 0.0
25/12:00am 11.3 10.0 10.0 92 0.7 SW 7 9 4 5 1016.5 1016.5 0.0
 
Date/Time
EST
Tmp

°C
App
Tmp
°C
Dew
Point
°C
Rel
Hum
%
Delta-T

°C
Wind Press
QNH
hPa
Press
MSL
hPa
Rain
since
9 am
mm
Dir
 
Spd
km/h
Gust
km/h
Spd
kts
Gust
kts
24/11:30pm 10.8 8.9 9.1 89 0.8 WSW 9 11 5 6 1016.7 1016.7 0.0
24/11:00pm 11.2 9.4 9.5 89 0.9 NW 9 11 5 6 1016.7 1016.7 0.0
24/10:30pm 12.2 11.1 10.8 91 0.7 SW 7 9 4 5 1016.8 1016.8 0.0
24/10:00pm 12.2 11.0 10.3 88 1.0 WSW 7 9 4 5 1016.7 1016.7 0.0
24/09:30pm 12.2 10.4 9.6 84 1.3 WSW 9 11 5 6 1016.8 1016.8 0.0
24/09:00pm 12.4 10.6 9.6 83 1.4 W 9 11 5 6 1016.8 1016.8 0.0
24/08:30pm 13.3 11.5 10.7 84 1.4 WSW 11 13 6 7 1017.0 1017.0 0.0
24/08:00pm 13.9 11.7 10.7 81 1.7 WSW 13 15 7 8 1017.0 1017.0 0.0
24/07:30pm 14.1 12.3 10.7 80 1.8 WSW 11 15 6 8 1016.8 1016.8 0.0
24/07:00pm 14.1 12.4 9.9 76 2.2 WSW 9 13 5 7 1016.6 1016.6 0.0
24/06:30pm 14.8 13.0 10.8 77 2.1 WSW 11 13 6 7 1016.5 1016.5 0.0
24/06:00pm 15.1 13.1 10.1 72 2.6 WSW 11 13 6 7 1016.3 1016.3 0.0
24/05:30pm 15.4 15.3 9.3 67 3.1 CALM 0 0 0 0 1015.9 1015.9 0.0
24/05:00pm 18.6 16.9 8.3 51 5.3 SE 7 9 4 5 1015.7 1015.7 0.0
24/04:30pm 20.4 17.3 8.7 47 6.1 SE 15 24 8 13 1015.5 1015.5 0.0
24/04:00pm 21.6 17.5 8.8 44 6.8 SE 20 28 11 15 1015.5 1015.5 0.0
24/03:30pm 22.1 17.8 9.3 44 6.9 ESE 22 28 12 15 1015.3 1015.3 0.0
24/03:00pm 22.4 18.4 8.9 42 7.2 ESE 20 28 11 15 1015.2 1015.2 0.0
24/02:30pm 23.4 18.6 7.5 36 8.3 SE 22 30 12 16 1015.1 1015.1 0.0
24/02:00pm 23.6 19.1 6.8 34 8.7 SE 20 26 11 14 1014.8 1014.8 0.0
24/01:30pm 23.8 19.3 6.1 32 9.0 SE 19 24 10 13 1014.9 1014.9 0.0
24/01:00pm 24.0 20.2 7.6 35 8.6 SSE 17 30 9 16 1014.9 1014.9 0.0
24/12:30pm 24.0 19.4 6.7 33 8.9 SSE 20 26 11 14 1015.3 1015.3 0.0
24/12:00pm 23.6 18.9 6.0 32 8.9 SSE 20 28 11 15 1015.9 1015.9 0.0
24/11:30am 23.6 19.1 6.8 34 8.7 S 20 28 11 15 1016.6 1016.6 0.0
24/11:00am 23.5 19.2 7.2 35 8.5 SSW 19 26 10 14 1017.3 1017.3 0.0
24/10:30am 23.0 18.6 7.5 37 8.1 S 20 30 11 16 1017.8 1017.8 0.0
24/10:00am 22.7 18.4 6.9 36 8.1 SSW 19 30 10 16 1018.1 1018.1 0.0
24/09:30am 22.5 18.7 9.0 42 7.2 S 19 26 10 14 1018.0 1018.0 0.0
24/09:00am 21.8 17.8 9.0 44 6.8 S 20 30 11 16 1017.8 1017.8 0.0
24/08:30am 21.7 19.0 10.2 48 6.3 S 15 20 8 11 1017.7 1017.7 0.0
24/08:00am 20.8 18.3 10.9 53 5.4 SSW 15 20 8 11 1017.3 1017.3 0.0
24/07:30am 19.9 17.8 11.1 57 4.8 S 13 19 7 10 1017.0 1017.0 0.0
24/07:00am 18.4 16.9 11.9 66 3.6 S 11 15 6 8 1016.8 1016.8 0.0
24/06:30am 17.8 16.3 11.8 68 3.3 S 11 15 6 8 1016.6 1016.6 0.0
24/06:00am 17.5 15.5 12.6 73 2.7 S 15 19 8 10 1016.2 1016.2 0.0
24/05:30am 17.7 16.0 13.6 77 2.3 S 15 19 8 10 1015.8 1015.8 0.0
24/05:00am 14.2 13.8 13.1 93 0.6 S 7 13 4 7 1015.5 1015.5 0.0
24/04:30am 14.7 15.9 13.7 94 0.6 CALM 0 6 0 3 1015.1 1015.1 0.0
24/04:00am 14.9 15.4 13.9 94 0.6 SW 4 7 2 4 1014.9 1014.9 0.0
24/03:30am 14.2 15.2 13.1 93 0.6 CALM 0 7 0 4 1015.0 1015.0 0.0
24/03:00am 14.8 15.6 13.8 94 0.6 WSW 2 6 1 3 1015.0 1015.0 0.0
24/02:30am 14.8 14.9 13.8 94 0.6 WSW 6 9 3 5 1015.0 1015.0 0.0
24/02:00am 14.8 15.2 13.7 93 0.6 WSW 4 7 2 4 1015.0 1015.0 0.0
24/01:30am 15.6 15.7 14.5 93 0.6 WSW 7 9 4 5 1015.0 1015.0 0.0
24/01:00am 15.9 17.0 14.6 92 0.7 WSW 2 7 1 4 1015.0 1015.0 0.0
24/12:30am 16.9 18.5 14.9 88 1.2 CALM 0 6 0 3 1015.3 1015.3 0.0
24/12:00am 17.4 16.9 13.9 80 2.0 WNW 9 11 5 6 1015.4 1015.4 0.0
 
Date/Time
EST
Tmp

°C
App
Tmp
°C
Dew
Point
°C
Rel
Hum
%
Delta-T

°C
Wind Press
QNH
hPa
Press
MSL
hPa
Rain
since
9 am
mm
Dir
 
Spd
km/h
Gust
km/h
Spd
kts
Gust
kts
23/11:30pm 17.9 18.1 14.6 81 1.9 NW 7 9 4 5 1015.5 1015.5 0.0
23/11:00pm 19.2 19.0 14.7 75 2.6 N 9 11 5 6 1015.6 1015.6 0.0
23/10:30pm 19.5 20.4 15.2 76 2.5 NNW 4 7 2 4 1015.8 1015.8 0.0
23/10:00pm 20.0 19.9 15.0 73 2.9 N 9 15 5 8 1015.9 1015.9 0.0
23/09:30pm 20.4 20.5 15.4 73 3.0 NNW 9 11 5 6 1016.2 1016.2 0.0
23/09:00pm 20.6 19.8 15.2 71 3.2 NNW 13 20 7 11 1016.2 1016.2 0.0
23/08:30pm 20.6 20.3 15.4 72 3.1 NNW 11 15 6 8 1016.4 1016.4 0.0
23/08:00pm 21.5 19.6 15.3 68 3.7 NW 19 28 10 15 1016.3 1016.3 0.0
23/07:30pm 21.4 20.0 15.5 69 3.5 NNW 17 22 9 12 1016.1 1016.1 0.0
23/07:00pm 21.1 20.8 15.4 70 3.4 NW 11 15 6 8 1016.0 1016.0 0.0
23/06:30pm 21.5 21.1 15.3 68 3.7 NW 11 15 6 8 1015.6 1015.6 0.0
23/06:00pm 22.5 20.7 15.4 64 4.2 NNW 19 30 10 16 1015.5 1015.5 0.0
23/05:30pm 22.8 21.7 16.4 67 3.9 NNW 17 24 9 13 1015.1 1015.1 0.0
23/05:00pm 23.0 21.0 16.5 67 4.0 N 22 28 12 15 1014.9 1014.9 0.0
23/04:30pm 23.7 21.7 17.4 68 3.9 N 24 32 13 17 1014.9 1014.9 0.0
23/04:00pm 24.2 22.1 17.2 65 4.3 N 24 30 13 16 1014.6 1014.6 0.0
23/03:30pm 24.4 23.0 16.9 63 4.6 N 20 28 11 15 1014.5 1014.5 0.0
23/03:00pm 24.0 21.9 16.3 62 4.7 NNE 22 28 12 15 1014.5 1014.5 0.0
23/02:30pm 25.0 23.1 16.7 60 5.1 N 22 28 12 15 1014.5 1014.5 0.0
23/02:00pm 25.2 23.3 15.8 56 5.7 N 20 26 11 14 1014.8 1014.8 0.0
23/01:30pm 25.2 23.6 16.4 58 5.4 N 20 28 11 15 1015.0 1015.0 0.0
23/01:00pm 24.7 22.6 15.1 55 5.8 N 20 26 11 14 1015.5 1015.5 0.0
23/12:30pm 25.1 23.3 16.0 57 5.5 N 20 24 11 13 1016.2 1016.2 0.0
23/12:00pm 25.0 23.2 15.6 56 5.7 N 19 24 10 13 1016.7 1016.7 0.0
23/11:30am 25.1 23.1 15.4 55 5.9 N 20 24 11 13 1017.6 1017.6 0.0
23/11:00am 24.7 23.0 14.8 54 5.9 N 17 20 9 11 1018.2 1018.2 0.0

Latest Capital City Observations: Canberra | Sydney | Melbourne | Brisbane | Adelaide | Perth | Hobart | Darwin

Other Formats:

Comma delimited format used in spreadsheet applications
http://www.bom.gov.au/fwo/IDQ60901/IDQ60901.94592.axf

JavaScript Object Notation format (JSON) in row-major order
http://www.bom.gov.au/fwo/IDQ60901/IDQ60901.94592.json